createdAt,value
2019-04-14T00:00:44.770Z,1.67
2019-04-14T00:04:50.768Z,2.10
2019-04-14T00:08:54.332Z,1.63
2019-04-14T00:12:57.784Z,1.87
2019-04-14T00:17:00.473Z,1.40
2019-04-14T00:21:04.354Z,1.50
2019-04-14T00:25:08.665Z,1.70
2019-04-14T00:29:11.555Z,1.80
2019-04-14T00:33:16.930Z,1.70
2019-04-14T00:37:35.775Z,1.87
2019-04-14T00:42:00.296Z,1.60
2019-04-14T00:46:05.956Z,1.70
2019-04-14T00:50:08.391Z,1.73
2019-04-14T00:54:11.061Z,1.70
2019-04-14T00:58:14.868Z,1.73
2019-04-14T01:02:17.343Z,1.77
2019-04-14T01:06:20.696Z,1.53
2019-04-14T01:10:23.587Z,1.47
2019-04-14T01:14:26.290Z,1.93
2019-04-14T01:18:29.852Z,1.40
2019-04-14T01:22:33.468Z,1.47
2019-04-14T01:26:35.861Z,1.30
2019-04-14T01:30:39.365Z,1.83
2019-04-14T01:34:43.313Z,1.57
2019-04-14T01:38:45.695Z,1.47
2019-04-14T01:42:48.603Z,1.33
2019-04-14T01:46:52.089Z,1.50
2019-04-14T01:51:07.067Z,2.07
2019-04-14T01:55:28.866Z,1.50
2019-04-14T01:59:32.580Z,2.10
2019-04-14T02:03:34.803Z,1.80
2019-04-14T02:07:38.267Z,1.60
2019-04-14T02:11:42.272Z,1.70
2019-04-14T02:15:44.857Z,2.00
2019-04-14T02:19:48.128Z,1.57
2019-04-14T02:23:51.783Z,1.57
2019-04-14T02:27:54.209Z,1.73
2019-04-14T02:32:25.553Z,1.80
2019-04-14T02:40:36.521Z,2.00
2019-04-14T02:44:38.415Z,1.90
2019-04-14T02:48:44.901Z,1.43
2019-04-14T02:52:46.538Z,1.70
2019-04-14T02:57:01.855Z,1.70
2019-04-14T03:01:00.143Z,1.60
2019-04-14T03:04:57.965Z,1.20
2019-04-14T03:09:15.363Z,1.97
2019-04-14T03:13:05.537Z,1.60
2019-04-14T03:17:31.662Z,1.73
2019-04-14T03:22:05.133Z,2.40
2019-04-14T03:26:15.464Z,1.93
2019-04-14T03:35:07.973Z,1.40
2019-04-14T03:39:00.843Z,1.60
2019-04-14T03:43:01.417Z,1.80
2019-04-14T03:51:13.713Z,1.57
2019-04-14T03:55:01.502Z,1.60
2019-04-14T03:58:48.601Z,1.47
2019-04-14T04:02:51.233Z,2.00
2019-04-14T04:06:53.549Z,1.73
2019-04-14T04:10:57.493Z,1.47
2019-04-14T04:14:59.874Z,2.10
2019-04-14T04:19:15.606Z,1.70
2019-04-14T04:23:40.240Z,1.87
2019-04-14T04:28:03.764Z,1.97
2019-04-14T04:32:16.522Z,2.23
2019-04-14T04:36:42.030Z,1.60
2019-04-14T04:40:44.488Z,1.77
2019-04-14T04:44:47.106Z,2.30
2019-04-14T04:49:01.978Z,2.03
2019-04-14T04:52:56.182Z,2.13
2019-04-14T04:56:58.517Z,2.10
2019-04-14T05:01:01.460Z,1.70
2019-04-14T05:05:07.676Z,2.23
2019-04-14T05:09:18.874Z,2.10
2019-04-14T05:13:25.253Z,1.90
2019-04-14T05:17:27.789Z,1.60
2019-04-14T05:21:32.489Z,1.47
2019-04-14T05:25:34.739Z,1.50
2019-04-14T05:29:36.897Z,1.93
2019-04-14T05:33:40.365Z,1.30
2019-04-14T05:37:42.625Z,1.30
2019-04-14T05:41:57.115Z,1.13
2019-04-14T05:45:50.041Z,1.30
2019-04-14T05:49:54.983Z,1.43
2019-04-14T05:53:57.620Z,1.20
2019-04-14T05:57:59.936Z,1.43
2019-04-14T06:02:02.584Z,1.53
2019-04-14T06:06:05.028Z,1.20
2019-04-14T06:10:07.664Z,1.10
2019-04-14T06:14:10.130Z,0.90
2019-04-14T06:18:12.397Z,1.40
2019-04-14T06:22:14.823Z,1.57
2019-04-14T06:26:17.241Z,1.53
2019-04-14T06:30:42.279Z,1.40
2019-04-14T06:35:02.229Z,1.23
2019-04-14T06:39:12.627Z,1.10
2019-04-14T06:43:14.795Z,0.97
2019-04-14T06:47:17.131Z,1.07
2019-04-14T06:51:19.514Z,1.23
2019-04-14T06:55:21.773Z,1.50
2019-04-14T06:59:24.002Z,1.03
2019-04-14T07:03:26.270Z,1.23
2019-04-14T07:07:28.466Z,1.00
2019-04-14T07:11:30.706Z,1.20
2019-04-14T07:15:33.032Z,1.00
2019-04-14T07:19:35.307Z,1.30
2019-04-14T07:23:37.637Z,0.97
2019-04-14T07:27:39.860Z,0.80
2019-04-14T07:31:56.313Z,0.90
2019-04-14T07:36:26.435Z,0.90
2019-04-14T07:40:50.273Z,0.83
2019-04-14T07:45:00.118Z,1.13
2019-04-14T07:49:14.608Z,0.90
2019-04-14T07:53:42.268Z,1.30
2019-04-14T07:58:09.581Z,1.20
2019-04-14T08:02:20.986Z,1.17
2019-04-14T08:06:23.200Z,0.70
2019-04-14T08:10:25.494Z,0.83
2019-04-14T08:14:27.728Z,0.73
2019-04-14T08:18:31.109Z,0.70
2019-04-14T08:22:33.306Z,0.80
2019-04-14T08:26:35.894Z,1.10
2019-04-14T08:30:38.115Z,0.80
2019-04-14T08:34:40.743Z,0.80
2019-04-14T08:38:42.944Z,0.90
2019-04-14T08:43:03.949Z,0.80
2019-04-14T08:47:31.028Z,1.03
2019-04-14T08:51:54.888Z,0.80
2019-04-14T08:56:21.842Z,0.77
2019-04-14T09:00:52.507Z,0.80
2019-04-14T09:04:59.177Z,0.57
2019-04-14T09:09:20.242Z,0.80
2019-04-14T09:13:22.707Z,0.50
2019-04-14T09:17:28.160Z,0.60
2019-04-14T09:21:30.384Z,0.60
2019-04-14T09:25:32.621Z,0.90
2019-04-14T09:29:34.847Z,0.40
2019-04-14T09:33:37.107Z,0.80
2019-04-14T09:37:39.347Z,0.50
2019-04-14T09:41:41.867Z,0.40
2019-04-14T09:45:44.119Z,0.50
2019-04-14T09:49:46.346Z,0.47
2019-04-14T09:53:48.526Z,0.50
2019-04-14T09:57:51.185Z,0.50
2019-04-14T10:01:53.382Z,0.43
2019-04-14T10:05:55.640Z,0.40
2019-04-14T10:09:57.907Z,0.40
2019-04-14T10:14:00.270Z,0.37
2019-04-14T10:18:02.529Z,0.40
2019-04-14T10:22:04.883Z,0.40
2019-04-14T10:26:07.113Z,0.33
2019-04-14T10:30:09.985Z,0.40
2019-04-14T10:34:12.181Z,0.40
2019-04-14T10:38:14.487Z,0.77
2019-04-14T10:42:16.721Z,0.50
2019-04-14T10:46:20.199Z,0.50
2019-04-14T10:50:30.817Z,0.37
2019-04-14T10:54:28.271Z,0.40
2019-04-14T10:58:30.486Z,0.40
2019-04-14T11:02:33.877Z,0.77
2019-04-14T11:06:39.520Z,0.40
2019-04-14T11:10:42.788Z,0.30
2019-04-14T11:14:45.358Z,0.40
2019-04-14T11:18:47.585Z,0.37
2019-04-14T11:23:02.521Z,0.80
2019-04-14T11:26:54.014Z,0.40
2019-04-14T11:30:56.295Z,0.30
2019-04-14T11:35:21.647Z,0.30
2019-04-14T11:39:24.086Z,0.50
2019-04-14T11:43:26.750Z,0.43
2019-04-14T11:47:28.978Z,0.47
2019-04-14T11:51:31.304Z,0.40
2019-04-14T11:55:33.500Z,0.53
2019-04-14T11:59:54.540Z,0.43
2019-04-14T12:04:14.394Z,0.50
2019-04-14T12:08:26.968Z,0.50
2019-04-14T12:12:29.168Z,0.50
2019-04-14T12:16:32.056Z,0.50
2019-04-14T12:20:34.333Z,0.30
2019-04-14T12:24:36.572Z,0.70
2019-04-14T12:28:38.760Z,0.50
2019-04-14T12:32:41.094Z,0.50
2019-04-14T12:36:43.320Z,0.40
2019-04-14T12:40:45.673Z,0.30
2019-04-14T12:45:06.663Z,0.70
2019-04-14T12:49:22.013Z,0.60
2019-04-14T12:53:25.534Z,0.40
2019-04-14T12:57:37.079Z,0.40
2019-04-14T13:01:43.928Z,0.30
2019-04-14T13:05:46.198Z,0.47
2019-04-14T13:09:50.902Z,0.40
2019-04-14T13:13:53.135Z,0.40
2019-04-14T13:17:56.305Z,0.40
2019-04-14T13:21:58.601Z,0.50
2019-04-14T13:26:00.986Z,0.40
2019-04-14T13:30:03.411Z,0.53
2019-04-14T13:34:06.911Z,0.53
2019-04-14T13:38:09.517Z,0.60
2019-04-14T13:42:12.421Z,0.40
2019-04-14T13:46:15.665Z,0.50
2019-04-14T13:50:18.701Z,0.60
2019-04-14T13:54:21.828Z,0.40
2019-04-14T13:58:24.584Z,0.40
2019-04-14T14:02:26.823Z,0.50
2019-04-14T14:06:29.526Z,0.30
2019-04-14T14:10:35.212Z,0.30
2019-04-14T14:15:05.088Z,0.97
2019-04-14T14:19:20.134Z,0.40
2019-04-14T14:23:30.049Z,0.30
2019-04-14T14:27:32.786Z,0.70
2019-04-14T14:31:36.638Z,0.50
2019-04-14T14:35:39.435Z,0.30
2019-04-14T14:39:42.074Z,0.30
2019-04-14T14:43:46.072Z,0.40
2019-04-14T14:48:02.214Z,0.70
2019-04-14T14:52:09.260Z,0.50
2019-04-14T14:56:11.664Z,0.60
2019-04-14T15:00:34.322Z,0.43
2019-04-14T15:04:36.516Z,0.40
2019-04-14T15:08:38.782Z,0.47
2019-04-14T15:12:42.082Z,0.60
2019-04-14T15:16:44.431Z,0.70
2019-04-14T15:20:46.849Z,0.90
2019-04-14T15:24:49.195Z,0.90
2019-04-14T15:28:51.391Z,0.70
2019-04-14T15:32:53.665Z,0.60
2019-04-14T15:36:55.923Z,0.60
2019-04-14T15:40:58.254Z,0.90
2019-04-14T15:45:00.437Z,1.10
2019-04-14T15:49:03.919Z,0.70
2019-04-14T15:53:06.140Z,0.80
2019-04-14T15:57:23.761Z,1.00
2019-04-14T16:01:51.675Z,0.50
2019-04-14T16:06:01.759Z,0.93
2019-04-14T16:10:22.760Z,1.67
2019-04-14T16:14:44.884Z,0.70
2019-04-14T16:19:06.015Z,0.80
2019-04-14T16:23:08.350Z,0.73
2019-04-14T16:27:23.616Z,0.70
2019-04-14T16:31:43.277Z,0.57
2019-04-14T16:35:46.319Z,1.00
2019-04-14T16:39:48.601Z,0.63
2019-04-14T16:43:50.783Z,0.80
2019-04-14T16:47:53.005Z,0.80
2019-04-14T16:52:05.810Z,1.23
2019-04-14T16:56:37.361Z,1.23
2019-04-14T17:00:43.131Z,1.27
2019-04-14T17:04:45.426Z,1.70
2019-04-14T17:08:47.658Z,0.80
2019-04-14T17:12:49.882Z,0.63
2019-04-14T17:17:04.102Z,0.80
2019-04-14T17:21:28.507Z,0.70
2019-04-14T17:25:36.778Z,1.37
2019-04-14T17:29:54.844Z,0.63
2019-04-14T17:34:11.374Z,0.43
2019-04-14T17:38:38.787Z,0.60
2019-04-14T17:42:48.617Z,1.00
2019-04-14T17:47:25.206Z,0.60
2019-04-14T17:51:34.082Z,0.90
2019-04-14T17:55:49.971Z,0.87
2019-04-14T18:00:10.000Z,0.80
2019-04-14T18:04:31.582Z,0.70
2019-04-14T18:08:55.586Z,0.70
2019-04-14T18:13:05.168Z,0.70
2019-04-14T18:17:23.418Z,0.80
2019-04-14T18:21:25.777Z,0.47
2019-04-14T18:25:29.798Z,0.80
2019-04-14T18:29:57.355Z,0.60
2019-04-14T18:34:12.484Z,0.77
2019-04-14T18:38:29.797Z,0.73
2019-04-14T18:42:39.014Z,0.70
2019-04-14T18:46:59.803Z,0.83
2019-04-14T18:51:12.318Z,0.60
2019-04-14T18:55:26.334Z,0.97
2019-04-14T18:59:38.825Z,0.70
2019-04-14T19:03:48.300Z,0.80
2019-04-14T19:07:52.295Z,0.80
2019-04-14T19:12:12.780Z,1.07
2019-04-14T19:16:38.539Z,1.03
2019-04-14T19:20:31.931Z,0.60
2019-04-14T19:24:35.200Z,0.70
2019-04-14T19:28:38.990Z,0.80
2019-04-14T19:32:42.572Z,0.80
2019-04-14T19:36:45.718Z,0.77
2019-04-14T19:40:48.131Z,0.80
2019-04-14T19:44:50.593Z,0.60
2019-04-14T19:48:53.182Z,0.87
2019-04-14T19:52:55.697Z,1.07
2019-04-14T19:56:58.133Z,0.87
2019-04-14T20:01:00.830Z,0.80
2019-04-14T20:05:03.486Z,0.83
2019-04-14T20:09:07.864Z,0.90
2019-04-14T20:13:11.483Z,0.97
2019-04-14T20:17:28.048Z,0.90
2019-04-14T20:21:49.517Z,0.90
2019-04-14T20:26:23.241Z,0.90
2019-04-14T20:30:33.501Z,1.00
2019-04-14T20:34:36.201Z,1.00
2019-04-14T20:38:40.499Z,0.97
2019-04-14T20:42:43.129Z,0.83
2019-04-14T20:46:45.806Z,1.00
2019-04-14T20:50:48.374Z,1.07
2019-04-14T20:54:51.164Z,0.87
2019-04-14T20:58:53.874Z,0.90
2019-04-14T21:03:19.030Z,1.10
2019-04-14T21:07:43.097Z,0.90
2019-04-14T21:12:07.184Z,1.00
2019-04-14T21:16:14.568Z,1.30
2019-04-14T21:20:33.653Z,1.10
2019-04-14T21:24:55.293Z,1.00
2019-04-14T21:29:19.386Z,1.07
2019-04-14T21:33:39.894Z,1.03
2019-04-14T21:38:04.193Z,1.03
2019-04-14T21:42:07.536Z,1.03
2019-04-14T21:46:10.237Z,1.00
2019-04-14T21:50:13.195Z,1.10
2019-04-14T21:54:16.001Z,0.90
2019-04-14T21:58:55.939Z,1.33
2019-04-14T22:03:16.550Z,1.07
2019-04-14T22:07:38.439Z,1.00
2019-04-14T22:11:41.029Z,1.10
2019-04-14T22:15:43.475Z,1.10
2019-04-14T22:19:46.172Z,1.40
2019-04-14T22:24:00.381Z,1.20
2019-04-14T22:27:54.258Z,1.07
2019-04-14T22:31:57.221Z,1.23
2019-04-14T22:35:59.958Z,1.40
2019-04-14T22:40:02.686Z,1.40
2019-04-14T22:44:05.411Z,1.20
2019-04-14T22:48:08.030Z,1.23
2019-04-14T22:52:10.492Z,1.60
2019-04-14T22:56:13.138Z,1.20
2019-04-14T23:00:29.419Z,1.30
2019-04-14T23:04:41.877Z,1.10
2019-04-14T23:08:52.241Z,1.47
2019-04-14T23:13:19.713Z,1.27
2019-04-14T23:17:43.804Z,1.57
2019-04-14T23:21:57.456Z,1.43
2019-04-14T23:26:00.102Z,1.37
2019-04-14T23:30:02.771Z,1.23
2019-04-14T23:34:05.675Z,1.40
2019-04-14T23:38:08.522Z,1.53
2019-04-14T23:42:11.287Z,1.20
2019-04-14T23:46:14.141Z,1.47
2019-04-14T23:50:16.658Z,1.13
2019-04-14T23:54:19.404Z,1.40
2019-04-14T23:58:21.925Z,1.27
